Main page
METAR-TAF:

METAR-TAF

Airports :

Montpellier–Méditerranée Airport

Montpellier, France

latitude: 43-35N, longitude: 003-58E, elevation: 5 m

Current weather observation

The report was made 44 minutes ago, at 16:30 UTC
Wind 6 kt from the South
Temperature 13°C
Humidity 67%
Pressure 1019 hPa
Visibility 10 km or more
no clouds below 1500 m and no cumulonimbus

METAR: LFMT 281630Z AUTO 19006KT CAVOK 13/07 Q1019 NOSIG

Time: 18:14 (17:14 UTC)

Forecast

The report was made 3 hours and 14 minutes ago, at 14:00 UTC
Forecast valid from 28 at 15 UTC to 29 at 15 UTC
Wind 10 kt from the South
Visibility 10 km or more
no clouds below 1500 m and no cumulonimbus
Becoming
from 28 at 20 UTC to 28 at 21 UTC
Wind 3 kt from variable directions
Broken clouds at a height of 1000 ft
Becoming
from 29 at 03 UTC to 29 at 05 UTC
Wind 15 kt from the South/Southeast
Temporary
from 29 at 06 UTC to 29 at 12 UTC
light rain

TAF: LFMT 281400Z 2815/2915 18010KT CAVOK BECMG 2820/2821 VRB03KT BKN010 BECMG 2903/2905 16015KT TEMPO 2906/2912 -RA

Weather observations and forecasts of more than 4000 airports (METAR and TAF reports).

The available stations are represented by yellow and red dots on the map.

Hover mouse over dot to see the name of the station.

Then click to see weather observations and forecasts.

To change the map : click on the green buttons with a black cross to zoom in, on the green button with a dash to zoom out, or on the green arrows for adjacent maps.


METAR-TAF: